Time;durP1;ratioP1;P1;durP2;ratioP2;P2;SDS_P1;SDS_P2;PMS_P1;PMS_P2;Temp;Humidity;BMP_temperature;BMP_pressure;BME280_temperature;BME280_humidity;BME280_pressure;Samples;Min_cycle;Max_cycle;Signal;HPM_P1;HPM_P2
2023/07/22 00:00:48;;;;;;;15.65;7.75;;;;;;;;;;5056530;28;20052;-77
2023/07/22 00:03:14;;;;;;;13.80;7.20;;;;;;;;;;5055170;28;20036;-78
2023/07/22 00:05:41;;;;;;;12.65;7.15;;;;;;;;;;5056088;28;20088;-78
2023/07/22 00:08:07;;;;;;;15.15;8.25;;;;;;;;;;5055277;28;20166;-78
2023/07/22 00:10:33;;;;;;;13.27;7.78;;;;;;;;;;5055979;28;20044;-77
2023/07/22 00:12:59;;;;;;;15.30;7.68;;;;;;;;;;5056240;28;20037;-78
2023/07/22 00:15:25;;;;;;;13.32;7.40;;;;;;;;;;5056430;28;20076;-77
2023/07/22 00:17:51;;;;;;;13.32;7.43;;;;;;;;;;5056563;28;20049;-78
2023/07/22 00:20:19;;;;;;;16.83;8.07;;;;;;;;;;5056293;28;20049;-77
2023/07/22 00:22:46;;;;;;;15.25;7.60;;;;;;;;;;5055921;28;20049;-77
2023/07/22 00:25:12;;;;;;;12.95;7.43;;;;;;;;;;5056522;28;20525;-78
2023/07/22 00:27:39;;;;;;;16.67;7.55;;;;;;;;;;5056028;28;20037;-78
2023/07/22 00:30:06;;;;;;;13.63;7.85;;;;;;;;;;5038122;28;20483;-79
2023/07/22 00:32:32;;;;;;;15.90;7.80;;;;;;;;;;5051051;28;20053;-77
2023/07/22 00:34:59;;;;;;;15.48;8.32;;;;;;;;;;5036974;28;20403;-78
2023/07/22 00:37:25;;;;;;;15.15;7.82;;;;;;;;;;5042258;28;20048;-77
2023/07/22 00:39:51;;;;;;;13.82;8.40;;;;;;;;;;5037809;28;20049;-77
2023/07/22 00:42:17;;;;;;;15.30;8.02;;;;;;;;;;5055473;28;20406;-77
2023/07/22 00:44:43;;;;;;;12.30;7.70;;;;;;;;;;5053881;28;20053;-78
2023/07/22 00:47:10;;;;;;;15.35;8.20;;;;;;;;;;5054656;28;20053;-78
2023/07/22 00:49:36;;;;;;;13.73;7.93;;;;;;;;;;5055203;28;20399;-78
2023/07/22 00:52:03;;;;;;;13.82;8.45;;;;;;;;;;5055201;28;20168;-78
2023/07/22 00:54:30;;;;;;;14.60;7.32;;;;;;;;;;5055227;28;20048;-78
2023/07/22 00:56:57;;;;;;;15.00;7.93;;;;;;;;;;5058485;28;20466;-78
2023/07/22 00:59:23;;;;;;;14.40;8.35;;;;;;;;;;5041409;28;20049;-78
2023/07/22 01:01:50;;;;;;;14.88;8.23;;;;;;;;;;5059557;28;20116;-78
2023/07/22 01:04:16;;;;;;;16.65;9.18;;;;;;;;;;5056053;28;20040;-77
2023/07/22 01:06:46;;;;;;;15.77;8.48;;;;;;;;;;5059606;28;20451;-79
2023/07/22 01:09:13;;;;;;;17.50;8.80;;;;;;;;;;5058904;28;20045;-78
2023/07/22 01:11:39;;;;;;;13.98;8.95;;;;;;;;;;5059256;28;20045;-78
2023/07/22 01:14:05;;;;;;;17.00;8.30;;;;;;;;;;5058674;28;20045;-78
2023/07/22 01:16:31;;;;;;;12.98;8.50;;;;;;;;;;5058936;28;20124;-78
2023/07/22 01:18:58;;;;;;;16.45;8.95;;;;;;;;;;5058714;28;20074;-78
2023/07/22 01:21:25;;;;;;;17.40;9.57;;;;;;;;;;5059111;28;20514;-78
2023/07/22 01:23:51;;;;;;;18.05;8.98;;;;;;;;;;5058708;28;20117;-78
2023/07/22 01:26:19;;;;;;;15.75;8.52;;;;;;;;;;5058618;28;20049;-78
2023/07/22 01:28:45;;;;;;;16.63;9.10;;;;;;;;;;5057776;28;20059;-78
2023/07/22 01:31:11;;;;;;;14.27;8.70;;;;;;;;;;5058193;28;20045;-78
2023/07/22 01:33:37;;;;;;;15.95;9.10;;;;;;;;;;5054881;28;20083;-78
2023/07/22 01:36:04;;;;;;;17.02;9.20;;;;;;;;;;5057528;28;20049;-77
2023/07/22 01:38:31;;;;;;;13.95;8.70;;;;;;;;;;5058431;28;20045;-78
2023/07/22 01:40:57;;;;;;;16.50;9.20;;;;;;;;;;5058577;28;20102;-78
2023/07/22 01:43:24;;;;;;;15.30;8.38;;;;;;;;;;5058038;28;20077;-78
2023/07/22 01:45:50;;;;;;;16.52;8.93;;;;;;;;;;5056092;28;20049;-77
2023/07/22 01:48:16;;;;;;;15.52;9.05;;;;;;;;;;5057497;28;20048;-78
2023/07/22 01:50:42;;;;;;;16.75;9.30;;;;;;;;;;5057690;28;20052;-78
2023/07/22 01:53:08;;;;;;;17.35;8.68;;;;;;;;;;5045643;28;20042;-78
2023/07/22 01:55:34;;;;;;;17.60;9.82;;;;;;;;;;5037374;28;20041;-77
2023/07/22 01:58:01;;;;;;;15.73;8.82;;;;;;;;;;5037533;28;20067;-77
2023/07/22 02:00:28;;;;;;;15.75;9.00;;;;;;;;;;5037653;28;20050;-77
2023/07/22 02:02:54;;;;;;;15.90;9.30;;;;;;;;;;5037180;28;20045;-77
2023/07/22 02:05:20;;;;;;;15.43;9.13;;;;;;;;;;5051014;28;20377;-78
2023/07/22 02:07:47;;;;;;;20.05;10.43;;;;;;;;;;5056784;28;20526;-78
2023/07/22 02:10:13;;;;;;;16.17;9.65;;;;;;;;;;5057808;28;20368;-77
2023/07/22 02:12:39;;;;;;;15.23;9.57;;;;;;;;;;5039301;28;20099;-77
2023/07/22 02:15:05;;;;;;;18.33;10.20;;;;;;;;;;5037446;28;20037;-78
2023/07/22 02:17:31;;;;;;;16.80;9.38;;;;;;;;;;5037940;28;20518;-77
2023/07/22 02:19:58;;;;;;;15.82;10.05;;;;;;;;;;5037904;28;20048;-76
2023/07/22 02:22:24;;;;;;;16.75;9.45;;;;;;;;;;5038007;28;20557;-77
2023/07/22 02:24:50;;;;;;;16.23;9.15;;;;;;;;;;5037727;28;20037;-76
2023/07/22 02:27:16;;;;;;;15.07;8.55;;;;;;;;;;5037497;28;20551;-77
2023/07/22 02:29:42;;;;;;;13.85;8.93;;;;;;;;;;5038277;28;20045;-79
2023/07/22 02:32:08;;;;;;;18.38;10.10;;;;;;;;;;5043946;28;20041;-78
2023/07/22 02:34:35;;;;;;;16.35;9.00;;;;;;;;;;5056212;28;20041;-78
2023/07/22 02:37:01;;;;;;;18.27;10.25;;;;;;;;;;5056851;28;20064;-77
2023/07/22 02:39:27;;;;;;;15.30;9.55;;;;;;;;;;5057445;28;20510;-78
2023/07/22 02:41:53;;;;;;;16.95;9.32;;;;;;;;;;5056496;28;20044;-77
2023/07/22 02:44:19;;;;;;;17.92;9.40;;;;;;;;;;5056853;28;20057;-77
2023/07/22 02:46:45;;;;;;;18.67;9.77;;;;;;;;;;5056316;28;20060;-78
2023/07/22 02:49:12;;;;;;;16.77;9.18;;;;;;;;;;5057338;28;20044;-78
2023/07/22 02:51:38;;;;;;;14.05;8.93;;;;;;;;;;5054828;28;20461;-78
2023/07/22 02:54:04;;;;;;;19.30;10.80;;;;;;;;;;5038653;28;20054;-77
2023/07/22 02:56:30;;;;;;;21.20;10.43;;;;;;;;;;5019145;28;20125;-77
2023/07/22 02:58:56;;;;;;;18.42;10.55;;;;;;;;;;5037138;28;20414;-77
2023/07/22 03:01:23;;;;;;;18.05;10.40;;;;;;;;;;5036634;28;20053;-79
2023/07/22 03:03:49;;;;;;;16.30;9.90;;;;;;;;;;5054014;28;20158;-77
2023/07/22 03:06:15;;;;;;;17.98;10.57;;;;;;;;;;5057132;28;20048;-78
2023/07/22 03:08:41;;;;;;;15.40;9.32;;;;;;;;;;5038803;28;20059;-77
2023/07/22 03:11:07;;;;;;;18.38;10.20;;;;;;;;;;5038405;28;20049;-78
2023/07/22 03:13:34;;;;;;;18.80;9.63;;;;;;;;;;5056144;28;20045;-78
2023/07/22 03:16:03;;;;;;;16.52;9.23;;;;;;;;;;5056282;28;20055;-77
2023/07/22 03:18:30;;;;;;;18.55;9.52;;;;;;;;;;5055901;28;20052;-78
2023/07/22 03:20:57;;;;;;;16.63;9.57;;;;;;;;;;5056103;28;20041;-79
2023/07/22 03:23:23;;;;;;;15.95;9.45;;;;;;;;;;5037846;28;20044;-79
2023/07/22 03:25:50;;;;;;;16.73;9.88;;;;;;;;;;5038082;28;20048;-77
2023/07/22 03:28:16;;;;;;;19.40;10.68;;;;;;;;;;5054048;28;20151;-78
2023/07/22 03:30:42;;;;;;;16.27;10.25;;;;;;;;;;5054919;28;20139;-78
2023/07/22 03:33:08;;;;;;;19.58;10.80;;;;;;;;;;5054749;28;20048;-78
2023/07/22 03:35:36;;;;;;;18.23;10.45;;;;;;;;;;5055880;28;20048;-78
2023/07/22 03:38:02;;;;;;;16.85;10.30;;;;;;;;;;5056484;28;20045;-79
2023/07/22 03:40:30;;;;;;;16.60;10.98;;;;;;;;;;5057189;28;20060;-79
2023/07/22 03:42:57;;;;;;;17.60;11.35;;;;;;;;;;5055526;28;20037;-79
2023/07/22 03:45:23;;;;;;;16.80;10.52;;;;;;;;;;5055893;28;20068;-78
2023/07/22 03:47:54;;;;;;;17.70;9.80;;;;;;;;;;5043828;28;20048;-78
2023/07/22 03:50:20;;;;;;;18.27;9.57;;;;;;;;;;5057324;28;20411;-78
2023/07/22 03:52:46;;;;;;;19.83;10.38;;;;;;;;;;5056671;28;20076;-78
2023/07/22 03:55:12;;;;;;;18.05;10.48;;;;;;;;;;5056062;28;20048;-78
2023/07/22 03:57:38;;;;;;;17.88;10.25;;;;;;;;;;5055268;28;20059;-78
2023/07/22 04:00:05;;;;;;;14.57;9.63;;;;;;;;;;5055478;28;20515;-79
2023/07/22 04:02:31;;;;;;;17.50;10.60;;;;;;;;;;5060370;28;20051;-78
2023/07/22 04:04:57;;;;;;;20.40;10.77;;;;;;;;;;5037949;28;20045;-78
2023/07/22 04:07:24;;;;;;;16.88;10.10;;;;;;;;;;5056048;28;20045;-78
2023/07/22 04:09:50;;;;;;;16.95;10.73;;;;;;;;;;5055873;28;20060;-79
2023/07/22 04:12:16;;;;;;;18.90;9.90;;;;;;;;;;5055327;28;20053;-78
2023/07/22 04:14:42;;;;;;;19.83;10.70;;;;;;;;;;5045318;28;20088;-78
2023/07/22 04:17:08;;;;;;;15.45;10.02;;;;;;;;;;5055335;28;20044;-79
2023/07/22 04:19:34;;;;;;;18.08;10.80;;;;;;;;;;5053932;28;20053;-78
2023/07/22 04:22:03;;;;;;;19.65;10.55;;;;;;;;;;5052605;28;20544;-78
2023/07/22 04:24:31;;;;;;;20.05;11.48;;;;;;;;;;5053814;28;20440;-79
2023/07/22 04:26:57;;;;;;;19.27;11.05;;;;;;;;;;5056158;28;20049;-79
2023/07/22 04:29:23;;;;;;;19.23;11.80;;;;;;;;;;5055052;28;20156;-78
2023/07/22 04:31:50;;;;;;;17.00;10.75;;;;;;;;;;5058751;28;20445;-78
2023/07/22 04:34:16;;;;;;;18.65;11.43;;;;;;;;;;5059119;28;20049;-79
2023/07/22 04:36:43;;;;;;;20.08;11.48;;;;;;;;;;5059101;28;20511;-78
2023/07/22 04:39:09;;;;;;;18.35;12.18;;;;;;;;;;5057947;28;20053;-79
2023/07/22 04:41:35;;;;;;;18.55;11.68;;;;;;;;;;5038463;28;20054;-78
2023/07/22 04:44:01;;;;;;;19.45;11.82;;;;;;;;;;5038573;28;20049;-78
2023/07/22 04:46:28;;;;;;;18.95;12.07;;;;;;;;;;5039498;28;20057;-79
2023/07/22 04:49:00;;;;;;;18.83;11.27;;;;;;;;;;5039440;28;20053;-79
2023/07/22 04:51:26;;;;;;;17.73;11.45;;;;;;;;;;5041928;28;20056;-79
2023/07/22 04:53:52;;;;;;;22.33;11.68;;;;;;;;;;5058783;28;20056;-78
2023/07/22 04:56:18;;;;;;;19.17;11.27;;;;;;;;;;5058340;28;20056;-78
2023/07/22 04:58:45;;;;;;;19.48;12.18;;;;;;;;;;5059006;28;20106;-79
2023/07/22 05:01:11;;;;;;;20.33;11.95;;;;;;;;;;5041421;28;20049;-78
2023/07/22 05:03:37;;;;;;;17.35;11.10;;;;;;;;;;5059084;28;20048;-80
2023/07/22 05:06:03;;;;;;;19.25;11.85;;;;;;;;;;5059007;28;20127;-78
2023/07/22 05:08:29;;;;;;;19.33;12.82;;;;;;;;;;5057729;28;20095;-78
2023/07/22 05:10:55;;;;;;;22.85;12.60;;;;;;;;;;5057442;28;20057;-78
2023/07/22 05:13:21;;;;;;;16.40;10.85;;;;;;;;;;5056703;28;20498;-78
2023/07/22 05:15:47;;;;;;;21.17;12.95;;;;;;;;;;5056551;28;20398;-78
2023/07/22 05:18:13;;;;;;;17.55;11.75;;;;;;;;;;5058050;28;20101;-77
2023/07/22 05:20:39;;;;;;;18.02;11.88;;;;;;;;;;5057486;28;20063;-78
2023/07/22 05:23:05;;;;;;;19.80;12.35;;;;;;;;;;5054883;28;20051;-78
2023/07/22 05:25:31;;;;;;;19.35;11.77;;;;;;;;;;5057580;28;20052;-77
2023/07/22 05:27:58;;;;;;;18.33;11.70;;;;;;;;;;5058196;28;20057;-77
2023/07/22 05:30:24;;;;;;;16.15;10.95;;;;;;;;;;5058842;28;20128;-77
2023/07/22 05:32:53;;;;;;;19.83;11.93;;;;;;;;;;5056601;28;20041;-77
2023/07/22 05:35:19;;;;;;;16.13;10.70;;;;;;;;;;5058725;28;20045;-77
2023/07/22 05:37:45;;;;;;;18.27;11.52;;;;;;;;;;5058510;28;20254;-78
2023/07/22 05:40:11;;;;;;;17.00;11.40;;;;;;;;;;5058120;28;20071;-77
2023/07/22 05:42:37;;;;;;;16.10;11.18;;;;;;;;;;5056218;28;20480;-78
2023/07/22 05:45:04;;;;;;;21.58;12.45;;;;;;;;;;5060001;28;20083;-78
2023/07/22 05:47:30;;;;;;;20.33;10.98;;;;;;;;;;5062084;28;20095;-79
2023/07/22 05:49:56;;;;;;;19.50;12.48;;;;;;;;;;5044921;28;20495;-78
2023/07/22 05:52:22;;;;;;;20.90;12.50;;;;;;;;;;5062328;28;20088;-79
2023/07/22 05:54:49;;;;;;;19.10;11.95;;;;;;;;;;5061986;28;20044;-79
2023/07/22 05:57:15;;;;;;;16.67;11.02;;;;;;;;;;5061666;28;20533;-79
2023/07/22 05:59:42;;;;;;;15.82;10.98;;;;;;;;;;5060282;28;20045;-78
2023/07/22 06:02:10;;;;;;;16.27;11.00;;;;;;;;;;5043484;28;20084;-78
2023/07/22 06:04:36;;;;;;;15.55;10.88;;;;;;;;;;5041217;28;20119;-78
2023/07/22 06:07:02;;;;;;;17.92;10.80;;;;;;;;;;5057712;28;20190;-77
2023/07/22 06:09:28;;;;;;;18.13;12.60;;;;;;;;;;5056972;28;20422;-77
2023/07/22 06:11:54;;;;;;;16.15;11.38;;;;;;;;;;5055147;28;20052;-79
2023/07/22 06:14:21;;;;;;;17.83;11.70;;;;;;;;;;5057225;28;20060;-78
2023/07/22 06:16:47;;;;;;;16.95;11.38;;;;;;;;;;5055269;28;20566;-79
2023/07/22 06:19:13;;;;;;;16.95;11.30;;;;;;;;;;5056681;28;20060;-78
2023/07/22 06:21:39;;;;;;;17.10;11.50;;;;;;;;;;5039395;28;20048;-79
2023/07/22 06:24:06;;;;;;;15.93;11.35;;;;;;;;;;5055983;28;20057;-79
2023/07/22 06:26:32;;;;;;;19.67;11.65;;;;;;;;;;5057419;28;20124;-78
2023/07/22 06:28:58;;;;;;;16.38;11.40;;;;;;;;;;5038513;28;20062;-78
2023/07/22 06:31:24;;;;;;;17.90;11.80;;;;;;;;;;5055503;28;20446;-78
2023/07/22 06:33:50;;;;;;;18.52;12.20;;;;;;;;;;5054453;28;20056;-77
2023/07/22 06:36:17;;;;;;;16.73;11.93;;;;;;;;;;5055082;28;20041;-78
2023/07/22 06:38:43;;;;;;;18.73;11.05;;;;;;;;;;5039821;28;20487;-78
2023/07/22 06:41:09;;;;;;;15.75;11.23;;;;;;;;;;5045942;28;20033;-78
2023/07/22 06:43:35;;;;;;;15.50;11.07;;;;;;;;;;5050122;28;20037;-78
2023/07/22 06:46:01;;;;;;;17.20;12.02;;;;;;;;;;5055750;28;20138;-78
2023/07/22 06:48:28;;;;;;;18.80;11.40;;;;;;;;;;5056371;28;20056;-78
2023/07/22 06:50:54;;;;;;;17.85;11.15;;;;;;;;;;5055191;28;20491;-79
2023/07/22 06:53:20;;;;;;;17.60;11.90;;;;;;;;;;5056327;28;20041;-79
2023/07/22 06:55:50;;;;;;;16.92;11.68;;;;;;;;;;5055949;28;20053;-78
2023/07/22 06:58:16;;;;;;;18.30;12.63;;;;;;;;;;5054354;28;20048;-78
2023/07/22 07:00:42;;;;;;;17.58;11.50;;;;;;;;;;5037311;28;20037;-79
2023/07/22 07:03:08;;;;;;;16.90;12.20;;;;;;;;;;5035673;28;20052;-79
2023/07/22 07:05:34;;;;;;;16.60;12.73;;;;;;;;;;5052762;28;20483;-79
2023/07/22 07:08:01;;;;;;;19.42;12.38;;;;;;;;;;5018416;28;20049;-79
2023/07/22 07:10:27;;;;;;;18.08;12.45;;;;;;;;;;5035996;28;20097;-79
2023/07/22 07:12:53;;;;;;;16.83;12.52;;;;;;;;;;5041193;28;20049;-78
2023/07/22 07:15:19;;;;;;;17.67;12.93;;;;;;;;;;5035950;28;20419;-78
2023/07/22 07:17:45;;;;;;;19.77;13.27;;;;;;;;;;5036736;28;20071;-79
2023/07/22 07:20:11;;;;;;;19.58;13.65;;;;;;;;;;5036578;28;20049;-78
2023/07/22 07:22:37;;;;;;;18.48;13.15;;;;;;;;;;5036291;28;20053;-77
2023/07/22 07:25:03;;;;;;;19.05;13.95;;;;;;;;;;5036163;28;20060;-78
2023/07/22 07:27:29;;;;;;;20.30;14.93;;;;;;;;;;5036483;28;20440;-78
2023/07/22 07:29:55;;;;;;;20.20;14.95;;;;;;;;;;5054734;28;20083;-78
2023/07/22 07:32:23;;;;;;;19.67;15.23;;;;;;;;;;5057026;28;20158;-80
2023/07/22 07:34:49;;;;;;;21.63;15.77;;;;;;;;;;5038960;28;20049;-79
2023/07/22 07:37:15;;;;;;;20.77;14.80;;;;;;;;;;5037209;28;20045;-78
2023/07/22 07:39:41;;;;;;;18.92;14.88;;;;;;;;;;5055497;28;20056;-77
2023/07/22 07:42:07;;;;;;;20.02;13.68;;;;;;;;;;5056082;28;20127;-79
2023/07/22 07:44:33;;;;;;;18.98;14.07;;;;;;;;;;5054559;28;20490;-78
2023/07/22 07:46:59;;;;;;;19.25;12.48;;;;;;;;;;5054879;28;20044;-77
2023/07/22 07:49:25;;;;;;;18.05;14.07;;;;;;;;;;5057927;28;20045;-79
2023/07/22 07:51:51;;;;;;;17.75;12.77;;;;;;;;;;5041227;28;20044;-79
2023/07/22 07:54:17;;;;;;;16.65;12.35;;;;;;;;;;5057711;28;20079;-78
2023/07/22 07:56:43;;;;;;;17.15;13.27;;;;;;;;;;5056337;28;20053;-78
2023/07/22 07:59:09;;;;;;;16.63;12.15;;;;;;;;;;5058534;28;20080;-79
2023/07/22 08:01:37;;;;;;;16.45;12.70;;;;;;;;;;5060844;28;20060;-80
2023/07/22 08:04:03;;;;;;;18.20;13.25;;;;;;;;;;5057648;28;20096;-78
2023/07/22 08:06:29;;;;;;;17.63;12.38;;;;;;;;;;5056693;28;20153;-78
2023/07/22 08:08:55;;;;;;;15.98;11.88;;;;;;;;;;5057445;28;20068;-78
2023/07/22 08:11:21;;;;;;;15.50;12.00;;;;;;;;;;5056289;28;20068;-79
2023/07/22 08:13:47;;;;;;;15.40;11.25;;;;;;;;;;5055734;28;20080;-79
2023/07/22 08:16:14;;;;;;;18.30;12.43;;;;;;;;;;5057908;28;20144;-78
2023/07/22 08:18:40;;;;;;;17.40;12.80;;;;;;;;;;5056422;28;20133;-78
2023/07/22 08:21:07;;;;;;;16.80;13.32;;;;;;;;;;5041521;28;20420;-79
2023/07/22 08:23:34;;;;;;;18.33;12.65;;;;;;;;;;5040389;28;20446;-81
2023/07/22 08:26:00;;;;;;;17.50;12.45;;;;;;;;;;5039345;28;20049;-78
2023/07/22 08:28:26;;;;;;;16.85;11.57;;;;;;;;;;5038693;28;20058;-78
2023/07/22 08:30:55;;;;;;;15.52;12.10;;;;;;;;;;5036074;28;20042;-78
2023/07/22 08:33:22;;;;;;;16.17;11.60;;;;;;;;;;5052111;28;20045;-79
2023/07/22 08:35:48;;;;;;;18.85;11.82;;;;;;;;;;5056351;28;20063;-78
2023/07/22 08:38:15;;;;;;;17.65;11.50;;;;;;;;;;5055612;28;20053;-79
2023/07/22 08:40:41;;;;;;;14.52;10.55;;;;;;;;;;5057391;28;20072;-78
2023/07/22 08:43:08;;;;;;;16.05;12.25;;;;;;;;;;5060245;28;20084;-78
2023/07/22 08:45:38;;;;;;;17.80;10.82;;;;;;;;;;5056449;28;20113;-78
2023/07/22 08:48:09;;;;;;;15.93;10.68;;;;;;;;;;5056384;28;20056;-78
2023/07/22 08:51:07;;;;;;;14.60;9.95;;;;;;;;;;5058624;28;20057;-80
2023/07/22 08:53:34;;;;;;;15.93;9.90;;;;;;;;;;5027192;28;20084;-79
2023/07/22 08:56:00;;;;;;;15.88;9.45;;;;;;;;;;5040510;28;20052;-79
2023/07/22 08:58:26;;;;;;;15.57;10.13;;;;;;;;;;5042404;28;20122;-78
2023/07/22 09:00:52;;;;;;;14.88;10.40;;;;;;;;;;5040408;28;20457;-79
2023/07/22 09:03:19;;;;;;;15.52;10.07;;;;;;;;;;5038884;28;20136;-78
2023/07/22 09:05:46;;;;;;;14.35;9.98;;;;;;;;;;5048021;28;20375;-79
2023/07/22 09:08:12;;;;;;;14.32;9.70;;;;;;;;;;5038006;28;20049;-79
2023/07/22 09:10:38;;;;;;;14.85;10.23;;;;;;;;;;5036946;28;20069;-78
2023/07/22 09:13:05;;;;;;;14.75;10.32;;;;;;;;;;5043214;28;20041;-79
2023/07/22 09:15:32;;;;;;;15.52;8.95;;;;;;;;;;5059606;28;20049;-79
2023/07/22 09:17:58;;;;;;;12.63;8.65;;;;;;;;;;5061589;28;20167;-79
2023/07/22 09:20:26;;;;;;;11.85;8.68;;;;;;;;;;5063538;28;20064;-78
2023/07/22 09:22:52;;;;;;;12.35;9.30;;;;;;;;;;5063859;28;20049;-79
2023/07/22 09:25:19;;;;;;;15.35;9.25;;;;;;;;;;5062649;28;20049;-79
2023/07/22 09:27:49;;;;;;;11.63;7.85;;;;;;;;;;5045328;28;20051;-79
2023/07/22 09:30:25;;;;;;;11.23;7.88;;;;;;;;;;5063475;28;20051;-79
2023/07/22 09:32:52;;;;;;;10.88;7.32;;;;;;;;;;5063527;28;20048;-78
2023/07/22 09:35:18;;;;;;;10.60;7.05;;;;;;;;;;5062224;28;20045;-78
2023/07/22 09:37:44;;;;;;;13.85;7.68;;;;;;;;;;5062843;28;20033;-78
2023/07/22 09:40:13;;;;;;;14.95;8.00;;;;;;;;;;5060814;28;20406;-79
2023/07/22 09:42:39;;;;;;;10.77;6.97;;;;;;;;;;5062941;28;20033;-78
2023/07/22 09:45:06;;;;;;;10.68;7.15;;;;;;;;;;5063046;28;20079;-79
2023/07/22 09:47:40;;;;;;;11.30;7.03;;;;;;;;;;5028031;28;20119;-79
2023/07/22 09:50:06;;;;;;;10.40;5.85;;;;;;;;;;5043554;28;20120;-79
2023/07/22 09:52:32;;;;;;;11.18;6.05;;;;;;;;;;5060427;28;20045;-78
2023/07/22 09:55:01;;;;;;;9.70;5.93;;;;;;;;;;5061595;28;20052;-78
2023/07/22 09:57:28;;;;;;;13.20;6.40;;;;;;;;;;5043567;28;20467;-78
2023/07/22 09:59:54;;;;;;;14.60;6.30;;;;;;;;;;5061355;28;20067;-79
2023/07/22 10:02:21;;;;;;;15.90;7.32;;;;;;;;;;5061158;28;20043;-79
2023/07/22 10:04:50;;;;;;;12.93;7.13;;;;;;;;;;5042283;28;20045;-79
2023/07/22 10:07:17;;;;;;;13.63;6.38;;;;;;;;;;5058052;28;20037;-79
2023/07/22 10:09:43;;;;;;;8.77;5.22;;;;;;;;;;5059984;28;20049;-79
2023/07/22 10:12:09;;;;;;;7.95;4.72;;;;;;;;;;5059674;28;20384;-78
2023/07/22 10:14:35;;;;;;;7.50;4.85;;;;;;;;;;5060110;28;20061;-79
2023/07/22 10:17:03;;;;;;;8.55;5.13;;;;;;;;;;5059003;28;20045;-79
2023/07/22 10:19:29;;;;;;;8.50;5.55;;;;;;;;;;5058971;28;20060;-78
2023/07/22 10:21:56;;;;;;;8.32;4.82;;;;;;;;;;5061099;28;20132;-79
2023/07/22 10:24:22;;;;;;;8.38;4.28;;;;;;;;;;5060409;28;20118;-80
2023/07/22 10:26:51;;;;;;;6.95;3.38;;;;;;;;;;5058458;28;20045;-78
2023/07/22 10:29:17;;;;;;;7.70;3.13;;;;;;;;;;5059284;28;20045;-78
2023/07/22 10:31:43;;;;;;;7.78;3.67;;;;;;;;;;5059323;28;20053;-78
2023/07/22 10:34:09;;;;;;;6.88;3.53;;;;;;;;;;5057094;28;20052;-78
2023/07/22 10:36:36;;;;;;;7.88;3.72;;;;;;;;;;5056816;28;20745;-79
2023/07/22 10:39:02;;;;;;;6.60;3.53;;;;;;;;;;5061562;28;20049;-79
2023/07/22 10:41:28;;;;;;;7.32;3.10;;;;;;;;;;5058715;28;20080;-78
2023/07/22 10:43:56;;;;;;;5.97;3.10;;;;;;;;;;5059029;28;20045;-78
2023/07/22 10:46:43;;;;;;;6.07;3.10;;;;;;;;;;5056668;28;20051;-78
2023/07/22 10:49:12;;;;;;;6.65;3.70;;;;;;;;;;5062320;28;20131;-79
2023/07/22 10:51:39;;;;;;;6.68;3.72;;;;;;;;;;5062291;28;20179;-78
2023/07/22 10:54:15;;;;;;;5.43;3.55;;;;;;;;;;5059128;28;20104;-78
2023/07/22 10:56:44;;;;;;;7.72;4.60;;;;;;;;;;5058680;28;20056;-78
2023/07/22 10:59:11;;;;;;;6.97;3.70;;;;;;;;;;5058481;28;20044;-78
2023/07/22 11:01:38;;;;;;;8.02;4.38;;;;;;;;;;5057648;28;20041;-77
2023/07/22 11:04:10;;;;;;;8.90;4.43;;;;;;;;;;5044065;28;20123;-79
2023/07/22 11:06:37;;;;;;;8.13;4.43;;;;;;;;;;5055317;28;20511;-79
2023/07/22 11:09:03;;;;;;;6.60;4.28;;;;;;;;;;5041625;28;20163;-79
2023/07/22 11:11:38;;;;;;;7.15;4.97;;;;;;;;;;5045697;28;20049;-78
2023/07/22 11:14:17;;;;;;;8.80;5.13;;;;;;;;;;5057787;28;20055;-79
2023/07/22 11:16:45;;;;;;;8.40;5.47;;;;;;;;;;5057071;28;20052;-78
2023/07/22 11:19:12;;;;;;;7.78;5.38;;;;;;;;;;5056151;28;20048;-79
2023/07/22 11:21:39;;;;;;;9.38;5.88;;;;;;;;;;5043964;28;20053;-79
2023/07/22 11:24:07;;;;;;;8.63;5.40;;;;;;;;;;5041240;28;20049;-79
2023/07/22 11:26:33;;;;;;;8.27;5.85;;;;;;;;;;5036563;28;20045;-78
2023/07/22 11:29:03;;;;;;;9.18;6.15;;;;;;;;;;5036031;28;20546;-79
2023/07/22 11:31:54;;;;;;;8.15;5.60;;;;;;;;;;5036383;28;20045;-78
2023/07/22 11:34:21;;;;;;;8.25;6.30;;;;;;;;;;5039478;28;20405;-79
2023/07/22 11:36:48;;;;;;;8.55;5.57;;;;;;;;;;5055322;28;20103;-78
2023/07/22 11:39:15;;;;;;;9.52;6.18;;;;;;;;;;5035476;28;20048;-78
2023/07/22 11:41:43;;;;;;;9.48;7.07;;;;;;;;;;5036177;28;20045;-78
2023/07/22 11:44:12;;;;;;;14.23;8.05;;;;;;;;;;5053869;28;20057;-79
2023/07/22 11:46:57;;;;;;;11.82;7.45;;;;;;;;;;5054590;28;20049;-79
2023/07/22 11:49:26;;;;;;;9.77;7.20;;;;;;;;;;5053196;28;20052;-79
2023/07/22 11:51:56;;;;;;;10.95;6.80;;;;;;;;;;5052473;28;20057;-79
2023/07/22 11:54:22;;;;;;;9.00;6.72;;;;;;;;;;5052826;28;20049;-79
2023/07/22 11:56:49;;;;;;;10.73;7.97;;;;;;;;;;5052996;28;20406;-78
2023/07/22 11:59:15;;;;;;;10.88;7.53;;;;;;;;;;5052863;28;20055;-78
2023/07/22 12:01:43;;;;;;;12.48;9.57;;;;;;;;;;5018224;28;20041;-78
2023/07/22 12:04:15;;;;;;;12.02;9.45;;;;;;;;;;5052994;28;20051;-78
2023/07/22 12:06:42;;;;;;;14.23;9.40;;;;;;;;;;5051363;28;20121;-78
2023/07/22 12:09:10;;;;;;;11.88;8.52;;;;;;;;;;5052557;28;20124;-78
2023/07/22 12:11:36;;;;;;;11.57;8.40;;;;;;;;;;5052561;28;20052;-79
2023/07/22 12:14:07;;;;;;;10.52;6.57;;;;;;;;;;5052673;28;20495;-78
2023/07/22 12:16:34;;;;;;;11.25;6.97;;;;;;;;;;5052860;28;20071;-79
2023/07/22 12:19:01;;;;;;;9.95;7.28;;;;;;;;;;5051919;28;20045;-78
2023/07/22 12:21:28;;;;;;;11.65;8.32;;;;;;;;;;5044480;28;21101;-78
2023/07/22 12:23:54;;;;;;;11.82;8.32;;;;;;;;;;5052292;28;20048;-77
2023/07/22 12:26:20;;;;;;;11.73;9.25;;;;;;;;;;5052378;28;20504;-78
2023/07/22 12:28:46;;;;;;;10.38;7.95;;;;;;;;;;5052202;28;20040;-78
2023/07/22 12:31:12;;;;;;;13.40;7.13;;;;;;;;;;5052703;28;20067;-78
2023/07/22 12:33:39;;;;;;;9.02;6.43;;;;;;;;;;5052670;28;20049;-78
2023/07/22 12:36:05;;;;;;;9.95;6.85;;;;;;;;;;5033764;28;20041;-79
2023/07/22 12:38:32;;;;;;;9.93;6.65;;;;;;;;;;5051607;28;20466;-78
2023/07/22 12:40:58;;;;;;;10.10;6.43;;;;;;;;;;5051659;28;20040;-78
2023/07/22 12:43:24;;;;;;;8.88;6.60;;;;;;;;;;5052278;28;20119;-78
2023/07/22 12:45:50;;;;;;;8.35;6.47;;;;;;;;;;5034126;28;20075;-78
2023/07/22 12:48:17;;;;;;;9.63;6.97;;;;;;;;;;5052179;28;20041;-78
2023/07/22 12:50:43;;;;;;;11.07;7.60;;;;;;;;;;5034389;28;20431;-78
2023/07/22 12:53:09;;;;;;;12.40;6.97;;;;;;;;;;5054281;28;20040;-78
2023/07/22 12:55:36;;;;;;;13.45;7.50;;;;;;;;;;5055207;28;20044;-78
2023/07/22 12:58:02;;;;;;;10.45;7.65;;;;;;;;;;5056308;28;20129;-78
2023/07/22 13:00:28;;;;;;;9.90;7.45;;;;;;;;;;5056077;28;20128;-78
2023/07/22 13:02:56;;;;;;;10.15;6.80;;;;;;;;;;5056798;28;20041;-78
2023/07/22 13:05:22;;;;;;;10.40;6.55;;;;;;;;;;5057402;28;20120;-76
2023/07/22 13:07:49;;;;;;;11.10;7.72;;;;;;;;;;5054321;28;20056;-77
2023/07/22 13:10:18;;;;;;;9.95;7.30;;;;;;;;;;5055723;28;20456;-77
2023/07/22 13:12:44;;;;;;;13.00;7.47;;;;;;;;;;5055957;28;20045;-79
2023/07/22 13:15:10;;;;;;;10.82;7.63;;;;;;;;;;5056186;28;20052;-76
2023/07/22 13:17:36;;;;;;;13.63;7.40;;;;;;;;;;5055440;28;20045;-77
2023/07/22 13:20:07;;;;;;;12.35;7.40;;;;;;;;;;5055510;28;20044;-77
2023/07/22 13:22:33;;;;;;;13.30;7.40;;;;;;;;;;5054313;28;20056;-78
2023/07/22 13:24:59;;;;;;;10.73;6.78;;;;;;;;;;5036656;28;20045;-77
2023/07/22 13:27:25;;;;;;;10.63;5.72;;;;;;;;;;5055361;28;20048;-77
2023/07/22 13:29:51;;;;;;;9.52;5.22;;;;;;;;;;5055391;28;20487;-77
2023/07/22 13:32:17;;;;;;;7.97;5.18;;;;;;;;;;5055184;28;20399;-77
2023/07/22 13:34:43;;;;;;;9.68;5.18;;;;;;;;;;5055156;28;20053;-77
2023/07/22 13:37:09;;;;;;;8.20;4.88;;;;;;;;;;5051460;28;20045;-77
2023/07/22 13:39:35;;;;;;;9.20;5.30;;;;;;;;;;5035216;28;20045;-77
2023/07/22 13:42:01;;;;;;;8.73;5.13;;;;;;;;;;5034958;28;20482;-78
2023/07/22 13:44:27;;;;;;;12.77;5.60;;;;;;;;;;5034923;28;20437;-78
2023/07/22 13:46:53;;;;;;;7.32;5.28;;;;;;;;;;5035030;28;20079;-77
2023/07/22 13:49:20;;;;;;;10.80;5.53;;;;;;;;;;5035612;28;20561;-77
2023/07/22 13:51:46;;;;;;;7.95;5.43;;;;;;;;;;5023473;28;20037;-77
2023/07/22 13:54:12;;;;;;;8.15;5.28;;;;;;;;;;5055329;28;20049;-78
2023/07/22 13:56:38;;;;;;;9.75;5.30;;;;;;;;;;5054533;28;20053;-78
2023/07/22 13:59:04;;;;;;;8.23;5.50;;;;;;;;;;5055473;28;20053;-78
2023/07/22 14:01:33;;;;;;;9.73;5.90;;;;;;;;;;5055248;28;20067;-77
2023/07/22 14:03:59;;;;;;;8.63;6.15;;;;;;;;;;5054599;28;20506;-78
2023/07/22 14:06:26;;;;;;;8.60;5.38;;;;;;;;;;5052043;28;20418;-77
2023/07/22 14:08:52;;;;;;;10.15;5.88;;;;;;;;;;5055378;28;20056;-77
2023/07/22 14:11:18;;;;;;;8.63;6.40;;;;;;;;;;5055611;28;20056;-77
2023/07/22 14:13:44;;;;;;;9.07;6.40;;;;;;;;;;5054850;28;20044;-78
2023/07/22 14:16:12;;;;;;;9.05;6.50;;;;;;;;;;5055032;28;20045;-77
2023/07/22 14:18:38;;;;;;;9.48;6.25;;;;;;;;;;5054686;28;20558;-78
2023/07/22 14:21:04;;;;;;;10.63;6.60;;;;;;;;;;5055010;28;20048;-78
2023/07/22 14:23:30;;;;;;;8.48;6.40;;;;;;;;;;5050611;28;20072;-78